Radnor, Ohio
Current Conditions -  °F | °C
As of 9:16 AM on Friday 24 Oct 2014 (Local Time) from KDLZ Reporting Station
Haze Haze  
Wind Chill: 39°   Ceiling: Unl
Heat Index: 39°   Visibility: 2.5mi
Dew Point: 39°   Wind: 0mph
Humidity: 100%   Direction: NA
Pressure: 30.12"   Gusts: NA
Location:  40.38°N, 83.15°W
Report Text: KDLZ 241316Z AUTO 00000KT 2 1/2SM BR CLR 04/04 A3012 RMK AO2
Loading
Personal Weather Stations






























Interactive Weather Map
Tropical Storm Tracking
New forecast layout! Learn more

10-Day Weather Forecast

Advertisements
Track Severe Weather on mobile